Time;durP1;ratioP1;P1;durP2;ratioP2;P2;SDS_P1;SDS_P2;PMS_P1;PMS_P2;Temp;Humidity;BMP_temperature;BMP_pressure;BME280_temperature;BME280_humidity;BME280_pressure;Samples;Min_cycle;Max_cycle;Signal;HPM_P1;HPM_P2
2023/06/20 03:22:39;;;;;;;11.70;10.70;;;;;;;21.62;78.78;100196.69;103590;1305;546181;-61
2023/06/20 03:25:08;;;;;;;11.00;10.20;;;;;;;22.05;75.43;100199.37;109412;1281;138832;-63
2023/06/20 03:27:38;;;;;;;10.90;10.10;;;;;;;22.23;74.53;100197.62;109338;1273;22256;-63
2023/06/20 03:30:06;;;;;;;13.90;11.00;;;;;;;22.63;72.67;100193.69;109224;1283;137500;-66
2023/06/20 03:32:36;;;;;;;11.20;10.30;;;;;;;22.91;70.58;100193.40;109101;1288;138365;-63
2023/06/20 03:35:05;;;;;;;11.10;10.20;;;;;;;23.05;69.16;100199.65;109224;1285;197206;-63
2023/06/20 03:37:33;;;;;;;12.50;11.50;;;;;;;23.11;67.92;100205.46;109627;1269;139488;-67
2023/06/20 03:40:00;;;;;;;11.70;10.70;;;;;;;22.96;68.49;100199.86;109729;1265;22350;-63
2023/06/20 03:42:30;;;;;;;12.00;10.90;;;;;;;22.81;68.65;100205.37;109609;1281;22229;-68
2023/06/20 03:44:58;;;;;;;11.70;10.80;;;;;;;22.75;69.38;100211.90;109559;1279;137579;-65
2023/06/20 03:47:26;;;;;;;11.80;10.90;;;;;;;22.77;69.32;100211.08;109655;1280;22743;-63
2023/06/20 03:49:54;;;;;;;11.10;10.10;;;;;;;22.85;69.34;100205.41;109608;1282;140677;-64
2023/06/20 03:52:21;;;;;;;11.00;10.00;;;;;;;23.00;68.81;100206.11;109569;1282;138273;-64
2023/06/20 03:54:49;;;;;;;12.70;11.70;;;;;;;23.22;68.00;100210.55;109810;1276;22336;-67
2023/06/20 03:57:16;;;;;;;12.00;11.20;;;;;;;23.54;66.68;100210.83;109765;1276;137593;-63
2023/06/20 03:59:44;;;;;;;12.20;11.30;;;;;;;23.80;65.62;100214.83;109780;1277;23069;-64
2023/06/20 04:02:11;;;;;;;11.90;10.90;;;;;;;24.03;65.25;100220.16;109626;1275;137539;-64
2023/06/20 04:04:38;;;;;;;11.80;10.90;;;;;;;24.29;64.07;100221.85;109835;1273;138158;-65
2023/06/20 04:07:08;;;;;;;13.00;11.80;;;;;;;24.45;63.53;100214.55;109926;1273;22322;-66
2023/06/20 04:09:36;;;;;;;13.30;11.80;;;;;;;24.79;63.00;100230.07;109803;1273;138850;-66
2023/06/20 04:12:04;;;;;;;13.40;12.30;;;;;;;25.22;61.48;100236.60;109661;1273;137742;-64
2023/06/20 04:14:31;;;;;;;14.40;13.30;;;;;;;25.60;59.84;100240.22;109938;1273;22325;-67
2023/06/20 04:16:59;;;;;;;18.10;16.70;;;;;;;25.78;59.18;100234.66;109711;1273;138520;-65
2023/06/20 04:19:26;;;;;;;13.30;12.10;;;;;;;25.93;58.31;100233.77;109879;1273;22332;-66
2023/06/20 04:21:53;;;;;;;13.90;12.80;;;;;;;26.14;57.43;100236.94;109851;1273;138766;-65
2023/06/20 04:24:20;;;;;;;14.80;13.50;;;;;;;26.33;56.54;100243.92;109823;1273;139058;-64
2023/06/20 04:26:49;;;;;;;13.10;11.90;;;;;;;26.50;55.74;100241.92;109879;1273;22120;-65
2023/06/20 04:29:16;;;;;;;13.90;12.90;;;;;;;26.55;55.67;100240.71;109786;1273;137838;-65
2023/06/20 04:31:43;;;;;;;14.30;13.10;;;;;;;26.64;55.69;100237.84;109782;1273;22707;-65
2023/06/20 04:34:11;;;;;;;12.10;11.10;;;;;;;26.81;54.65;100238.54;109815;1273;138716;-65
2023/06/20 04:36:38;;;;;;;13.90;12.70;;;;;;;26.90;53.98;100237.04;109807;1274;140243;-65
2023/06/20 04:39:07;;;;;;;12.40;11.30;;;;;;;26.82;53.82;100241.33;109966;1275;22122;-65
2023/06/20 04:41:35;;;;;;;13.90;12.80;;;;;;;26.55;54.55;100244.20;109831;1273;137572;-65
2023/06/20 04:44:02;;;;;;;13.90;12.70;;;;;;;26.26;55.35;100232.33;109882;1264;138071;-65
2023/06/20 04:46:30;;;;;;;14.30;12.00;;;;;;;26.07;56.01;100230.27;109927;1276;22122;-66
2023/06/20 04:48:57;;;;;;;15.20;13.70;;;;;;;25.90;56.82;100239.58;109912;1273;138102;-72
2023/06/20 04:51:24;;;;;;;14.20;13.00;;;;;;;25.84;57.32;100240.52;109933;1272;22347;-70
2023/06/20 04:53:53;;;;;;;13.50;12.30;;;;;;;25.74;57.28;100240.05;109916;1273;138800;-66
2023/06/20 04:56:22;;;;;;;14.50;13.20;;;;;;;25.34;58.83;100239.80;109916;1272;138782;-70
2023/06/20 04:58:50;;;;;;;13.00;12.00;;;;;;;25.04;60.39;100238.71;109989;1259;23057;-64
2023/06/20 05:01:18;;;;;;;13.90;12.80;;;;;;;24.95;61.10;100236.68;109805;1273;137606;-66
2023/06/20 05:03:46;;;;;;;13.80;12.40;;;;;;;24.95;61.24;100240.23;109881;1273;23065;-66
2023/06/20 05:06:19;;;;;;;13.90;12.70;;;;;;;24.86;62.07;100238.67;109947;1274;139450;-64
2023/06/20 05:08:47;;;;;;;12.50;11.50;;;;;;;24.70;62.28;100243.05;109846;1275;137977;-65
2023/06/20 05:11:14;;;;;;;13.80;12.60;;;;;;;24.73;62.82;100244.19;109984;1274;22109;-65
2023/06/20 05:13:42;;;;;;;14.60;12.80;;;;;;;24.79;62.37;100245.75;109834;1259;141571;-68
2023/06/20 05:16:09;;;;;;;12.90;11.90;;;;;;;24.84;62.43;100249.91;109919;1273;139423;-65
2023/06/20 05:18:36;;;;;;;14.20;12.80;;;;;;;24.85;62.47;100248.16;109957;1273;22324;-65
2023/06/20 05:21:04;;;;;;;17.80;16.40;;;;;;;24.99;62.72;100249.01;109935;1273;137773;-63
2023/06/20 05:23:32;;;;;;;15.40;14.10;;;;;;;25.29;61.51;100249.67;109949;1273;22324;-65
2023/06/20 05:26:01;;;;;;;13.40;12.10;;;;;;;25.42;60.64;100255.81;109947;1272;137800;-64
2023/06/20 05:28:28;;;;;;;15.40;13.80;;;;;;;25.41;60.62;100257.96;109848;1273;137972;-66
2023/06/20 05:30:56;;;;;;;16.50;15.00;;;;;;;25.18;62.03;100256.36;109959;1275;23948;-64
2023/06/20 05:33:24;;;;;;;14.50;13.20;;;;;;;25.03;62.53;100258.68;109835;1273;137660;-65
2023/06/20 05:35:51;;;;;;;17.90;16.20;;;;;;;25.10;62.12;100266.31;110000;1275;22208;-66
2023/06/20 05:38:19;;;;;;;11.80;10.70;;;;;;;25.13;62.07;100262.25;110015;1272;139336;-80
2023/06/20 05:40:46;;;;;;;14.20;13.10;;;;;;;25.20;61.64;100271.56;109909;1264;138425;-78
2023/06/20 05:43:13;;;;;;;11.40;9.10;;;;;;;25.25;60.42;100270.98;110017;1272;22337;-79
2023/06/20 05:45:41;;;;;;;12.00;8.60;;;;;;;25.30;60.24;100271.77;109921;1272;136976;-82
2023/06/20 05:48:10;;;;;;;10.10;9.10;;;;;;;25.45;59.21;100270.19;109985;1272;139160;-77
2023/06/20 05:50:38;;;;;;;11.50;9.00;;;;;;;25.59;58.94;100268.77;110257;1272;22229;-80
2023/06/20 05:53:07;;;;;;;11.60;9.60;;;;;;;25.84;58.48;100266.75;110041;1271;137280;-83
2023/06/20 05:55:34;;;;;;;9.10;8.30;;;;;;;26.20;57.34;100268.05;110164;1272;23030;-81
2023/06/20 05:58:02;;;;;;;9.60;8.70;;;;;;;26.55;55.75;100267.55;109935;1271;137840;-82
2023/06/20 06:00:29;;;;;;;10.10;9.30;;;;;;;26.77;54.82;100257.80;110053;1272;136878;-82
2023/06/20 06:02:56;;;;;;;10.70;9.80;;;;;;;27.10;53.81;100268.58;110098;1272;22161;-82
2023/06/20 06:05:24;;;;;;;12.80;11.30;;;;;;;27.28;53.00;100272.86;110037;1272;137150;-81
2023/06/20 06:07:52;;;;;;;9.20;8.60;;;;;;;27.35;54.10;100273.50;110163;1271;22973;-70
2023/06/20 06:10:19;;;;;;;9.50;8.80;;;;;;;27.58;51.70;100268.35;109946;1272;138502;-66
2023/06/20 06:12:46;;;;;;;10.00;9.30;;;;;;;27.71;51.23;100269.35;109930;1272;137952;-64
2023/06/20 06:15:14;;;;;;;9.10;8.40;;;;;;;27.72;50.98;100270.07;110244;1271;22226;-70
2023/06/20 06:17:41;;;;;;;9.50;8.80;;;;;;;27.74;50.67;100270.21;109931;1272;137722;-65
2023/06/20 06:20:14;;;;;;;10.00;9.30;;;;;;;27.68;50.82;100263.07;109985;1272;137648;-66
2023/06/20 06:22:41;;;;;;;10.10;9.10;;;;;;;27.66;51.29;100262.50;110045;1272;22330;-68
2023/06/20 06:25:09;;;;;;;11.00;10.00;;;;;;;27.67;51.38;100256.07;109849;1275;138630;-68
2023/06/20 06:27:36;;;;;;;10.40;9.50;;;;;;;27.70;50.65;100258.42;110079;1272;22400;-80
2023/06/20 06:31:46;;;;;;;9.60;8.80;;;;;;;27.49;51.09;100259.17;104307;1305;545570;-83
2023/06/20 06:34:18;;;;;;;9.50;8.70;;;;;;;27.28;50.80;100264.28;105654;1286;137348;-80
2023/06/20 06:36:48;;;;;;;11.10;10.10;;;;;;;27.40;51.38;100258.70;105617;1290;139075;-78
2023/06/20 06:39:18;;;;;;;9.80;9.10;;;;;;;27.39;51.67;100258.77;105817;1279;22578;-73
2023/06/20 06:41:48;;;;;;;10.30;9.50;;;;;;;27.53;51.26;100255.00;107019;1266;137146;-78
2023/06/20 06:44:16;;;;;;;10.10;8.50;;;;;;;27.65;51.51;100256.23;107191;1266;137613;-75
2023/06/20 06:46:44;;;;;;;10.40;9.40;;;;;;;27.66;50.85;100254.25;107882;1267;25846;-75
2023/06/20 06:49:12;;;;;;;9.90;9.10;;;;;;;27.55;50.79;100253.77;106582;1276;137055;-73
2023/06/20 06:51:39;;;;;;;10.20;9.40;;;;;;;27.61;50.43;100259.30;106653;1276;25349;-75
2023/06/20 06:54:07;;;;;;;8.50;7.80;;;;;;;27.70;50.51;100256.77;106736;1266;138408;-77
2023/06/20 07:15:31;;;;;;;9.60;8.70;;;;;;;27.90;48.74;100243.63;97275;1294;22559;-76
2023/06/20 07:18:01;;;;;;;10.00;9.00;;;;;;;27.92;48.60;100244.08;105112;1282;137695;-76
2023/06/20 07:20:29;;;;;;;11.70;10.70;;;;;;;27.91;48.59;100246.20;104746;1287;138642;-76
2023/06/20 07:22:56;;;;;;;10.70;9.90;;;;;;;27.86;49.12;100241.84;105190;1287;22575;-74
2023/06/20 07:25:25;;;;;;;11.20;9.50;;;;;;;27.82;49.71;100244.72;105814;1285;138187;-75
2023/06/20 07:27:56;;;;;;;10.30;9.40;;;;;;;27.92;49.48;100243.98;104858;1295;24240;-75
2023/06/20 07:30:23;;;;;;;10.00;9.20;;;;;;;27.99;49.54;100243.17;105061;1295;138403;-76
2023/06/20 07:32:50;;;;;;;10.90;9.30;;;;;;;27.94;49.52;100224.54;106529;1277;139363;-74
2023/06/20 07:35:34;;;;;;;16.00;10.10;;;;;;;28.09;49.83;100235.55;105646;1279;22356;31
2023/06/20 07:38:07;;;;;;;10.20;9.40;;;;;;;28.06;49.53;100233.00;105786;1291;137982;-75
2023/06/20 07:40:52;;;;;;;14.30;10.80;;;;;;;28.00;49.55;100230.66;105141;1292;137973;-76
2023/06/20 07:43:20;;;;;;;10.10;9.20;;;;;;;27.91;49.34;100232.71;105816;1285;22559;-75
2023/06/20 07:45:50;;;;;;;10.00;9.20;;;;;;;27.76;49.54;100230.27;105328;1279;138104;-74
2023/06/20 07:48:18;;;;;;;10.20;9.40;;;;;;;27.82;48.35;100226.96;104748;1291;138589;-74
2023/06/20 07:50:45;;;;;;;9.50;8.80;;;;;;;27.80;48.66;100228.39;104787;1295;23981;-71
2023/06/20 07:53:16;;;;;;;10.00;8.20;;;;;;;27.72;48.79;100226.02;105256;1282;137281;-75
2023/06/20 07:55:43;;;;;;;10.90;9.90;;;;;;;27.65;49.49;100227.30;104985;1293;22569;-81
2023/06/20 08:11:50;;;;;;;9.10;8.10;;;;;;;28.41;45.98;100222.58;106184;1298;549627;-85
2023/06/20 08:14:18;;;;;;;7.80;7.30;;;;;;;28.84;43.82;100223.81;107786;1276;287035;-79
2023/06/20 08:20:30;;;;;;;7.70;7.10;;;;;;;28.35;45.08;100224.63;105360;1313;137236;-84
2023/06/20 08:35:10;;;;;;;8.80;8.10;;;;;;;28.04;45.25;100219.20;108185;1264;548762;-77
2023/06/20 08:37:41;;;;;;;8.40;7.70;;;;;;;27.89;44.87;100218.45;111199;1261;167407;-78
2023/06/20 08:40:13;;;;;;;10.90;9.90;;;;;;;27.83;44.75;100219.39;112171;1255;137345;-77
2023/06/20 08:55:01;;;;;;;;;;;;;;;28.62;43.01;100209.30;105492;1294;549424;-77
2023/06/20 08:57:28;;;;;;;6.80;6.30;;;;;;;28.97;41.81;100206.61;107590;1273;171847;-87
2023/06/20 09:11:59;;;;;;;;;;;;;;;29.45;41.44;100202.57;109433;1266;548263;-79
2023/06/20 09:14:57;;;;;;;7.40;6.70;;;;;;;29.51;40.87;100203.85;109311;1250;200308;31
2023/06/20 09:17:25;;;;;;;7.90;7.40;;;;;;;29.24;41.77;100204.11;110220;1252;137710;-78
2023/06/20 09:19:53;;;;;;;8.20;7.60;;;;;;;28.95;42.31;100200.33;111461;1251;22521;-80
2023/06/20 09:36:21;;;;;;;7.10;6.60;;;;;;;29.66;41.33;100190.77;107712;1272;237048;-75
2023/06/20 09:38:52;;;;;;;7.30;6.80;;;;;;;29.47;41.40;100189.52;108795;1253;22920;-77
2023/06/20 09:45:04;;;;;;;8.30;6.90;;;;;;;29.06;42.16;100190.27;112269;1248;22496;-78
2023/06/20 09:47:34;;;;;;;7.40;6.90;;;;;;;28.93;42.29;100182.86;110472;1249;24155;-82
2023/06/20 09:50:07;;;;;;;8.50;7.70;;;;;;;28.83;42.95;100177.52;110255;1241;23885;-75
2023/06/20 09:56:37;;;;;;;9.00;8.10;;;;;;;28.82;42.77;100177.16;111818;1248;22429;31
2023/06/20 09:59:09;;;;;;;7.70;7.10;;;;;;;28.71;43.03;100179.98;112617;1242;22166;-79
2023/06/20 10:13:53;;;;;;;;;;;;;;;29.58;41.32;100167.02;104551;1296;549173;-82
2023/06/20 10:29:22;;;;;;;8.20;6.70;;;;;;;30.48;38.53;100161.23;108318;1272;549447;31
2023/06/20 15:50:24;;;;;;;9.90;9.10;;;;;;;23.74;75.91;100309.99;104033;1302;549954;-80
2023/06/20 15:53:47;;;;;;;8.90;8.20;;;;;;;23.98;72.76;100314.87;103818;1282;5004712;31
2023/06/20 15:57:03;;;;;;;9.60;8.60;;;;;;;23.53;76.62;100311.76;107613;1280;138667;31
2023/06/20 16:00:01;;;;;;;8.20;7.60;;;;;;;22.97;80.84;100311.68;107575;1285;22324;31
2023/06/20 16:10:00;;;;;;;7.40;6.70;;;;;;;21.27;95.03;100291.24;102254;1295;138095;-79
2023/06/20 16:12:28;;;;;;;9.30;8.30;;;;;;;21.05;97.44;100292.39;107041;1301;138167;-81
2023/06/20 16:14:57;;;;;;;10.30;9.50;;;;;;;20.94;99.61;100290.19;107143;1299;23066;-76
2023/06/20 16:17:58;;;;;;;10.30;9.50;;;;;;;20.76;99.88;100279.31;106969;1294;138606;31
2023/06/20 16:32:36;;;;;;;8.70;6.50;;;;;;;20.93;91.49;100246.55;107722;1266;548513;-78
2023/06/20 16:35:04;;;;;;;7.00;6.50;;;;;;;20.90;89.69;100223.29;108654;1247;247773;-80
2023/06/20 16:37:38;;;;;;;8.00;7.20;;;;;;;20.63;92.89;100205.74;108944;1261;138288;-79
